Time;durP1;ratioP1;P1;durP2;ratioP2;P2;SDS_P1;SDS_P2;PMS_P1;PMS_P2;Temp;Humidity;BMP_temperature;BMP_pressure;BME280_temperature;BME280_humidity;BME280_pressure;Samples;Min_cycle;Max_cycle;Signal;HPM_P1;HPM_P2
2023/05/30 00:01:20;;;;;;;13.88;3.72;;;;;;;;;;5028610;28;20065;-72
2023/05/30 00:03:46;;;;;;;16.73;3.33;;;;;;;;;;5030272;28;20033;-72
2023/05/30 00:06:13;;;;;;;14.88;2.63;;;;;;;;;;5023440;28;20045;-73
2023/05/30 00:08:43;;;;;;;11.95;2.67;;;;;;;;;;5029609;28;20041;-71
2023/05/30 00:11:10;;;;;;;16.73;4.15;;;;;;;;;;5026966;28;20117;-72
2023/05/30 00:13:37;;;;;;;13.23;3.38;;;;;;;;;;5014235;28;20030;-72
2023/05/30 00:16:03;;;;;;;17.20;2.80;;;;;;;;;;5029666;28;20788;-72
2023/05/30 00:18:34;;;;;;;14.40;2.65;;;;;;;;;;5032296;28;20033;-72
2023/05/30 00:21:04;;;;;;;14.07;2.70;;;;;;;;;;5026512;28;20475;-72
2023/05/30 00:23:31;;;;;;;10.63;3.33;;;;;;;;;;5025142;28;20029;-72
2023/05/30 00:25:57;;;;;;;17.70;3.80;;;;;;;;;;5028097;28;20494;-72
2023/05/30 00:28:24;;;;;;;13.32;3.67;;;;;;;;;;5031029;28;20042;-72
2023/05/30 00:30:50;;;;;;;10.25;2.65;;;;;;;;;;5029104;28;20498;-72
2023/05/30 00:33:16;;;;;;;5.32;2.10;;;;;;;;;;5028097;28;20478;-72
2023/05/30 00:35:42;;;;;;;16.63;3.75;;;;;;;;;;5025269;28;20033;-72
2023/05/30 00:38:08;;;;;;;14.73;3.17;;;;;;;;;;5027181;28;20053;-71
2023/05/30 00:40:34;;;;;;;10.55;2.72;;;;;;;;;;5024051;28;20379;-72
2023/05/30 00:43:00;;;;;;;13.23;3.00;;;;;;;;;;5030882;28;20038;-72
2023/05/30 00:45:26;;;;;;;14.85;3.90;;;;;;;;;;5027592;28;20069;-72
2023/05/30 00:47:53;;;;;;;14.50;2.70;;;;;;;;;;5029490;28;20057;-72
2023/05/30 00:50:19;;;;;;;12.27;2.92;;;;;;;;;;5029059;28;20030;-72
2023/05/30 00:52:48;;;;;;;15.23;3.15;;;;;;;;;;5025486;28;20101;-72
2023/05/30 00:55:15;;;;;;;14.48;3.03;;;;;;;;;;5028787;28;20029;-72
2023/05/30 00:57:42;;;;;;;11.68;2.90;;;;;;;;;;5024610;28;20116;-72
2023/05/30 01:00:10;;;;;;;15.05;2.80;;;;;;;;;;5029801;28;20033;-72
2023/05/30 01:02:37;;;;;;;12.95;2.78;;;;;;;;;;5028940;28;20030;-72
2023/05/30 01:05:03;;;;;;;11.77;3.40;;;;;;;;;;5031389;28;20364;-72
2023/05/30 01:07:29;;;;;;;11.63;2.92;;;;;;;;;;5024570;28;20041;-72
2023/05/30 01:09:55;;;;;;;10.52;3.60;;;;;;;;;;5029218;28;20060;-72
2023/05/30 01:12:25;;;;;;;15.32;3.33;;;;;;;;;;5023756;28;20060;-72
2023/05/30 01:14:56;;;;;;;15.60;3.75;;;;;;;;;;5027925;28;20032;-72
2023/05/30 01:17:44;;;;;;;14.98;3.70;;;;;;;;;;5023279;28;20070;-73
2023/05/30 01:20:16;;;;;;;15.10;3.33;;;;;;;;;;5005488;28;20178;-71
2023/05/30 01:22:55;;;;;;;10.10;2.53;;;;;;;;;;5027164;28;20126;-72
2023/05/30 01:25:27;;;;;;;15.25;3.10;;;;;;;;;;5026617;28;20104;-71
2023/05/30 01:27:54;;;;;;;8.00;2.60;;;;;;;;;;5024253;28;20517;-71
2023/05/30 01:30:21;;;;;;;11.43;2.75;;;;;;;;;;5024057;28;20513;-71
2023/05/30 01:32:47;;;;;;;13.27;3.60;;;;;;;;;;5030204;28;20025;-71
2023/05/30 01:35:23;;;;;;;23.25;3.47;;;;;;;;;;5028407;28;20120;-71
2023/05/30 01:37:49;;;;;;;11.32;2.85;;;;;;;;;;5027159;28;20040;-71
2023/05/30 01:40:21;;;;;;;13.45;3.20;;;;;;;;;;5026807;28;20056;-72
2023/05/30 01:42:50;;;;;;;13.38;2.83;;;;;;;;;;5036797;28;20116;-71
2023/05/30 01:45:20;;;;;;;12.25;2.50;;;;;;;;;;5024533;28;20037;-72
2023/05/30 01:47:54;;;;;;;14.38;2.83;;;;;;;;;;5030407;28;20102;-72
2023/05/30 01:50:21;;;;;;;17.20;2.63;;;;;;;;;;5028128;28;20025;-72
2023/05/30 01:52:51;;;;;;;12.98;2.97;;;;;;;;;;5025968;28;20076;-71
2023/05/30 01:55:17;;;;;;;8.10;2.47;;;;;;;;;;5025570;28;20037;-72
2023/05/30 01:57:48;;;;;;;16.45;2.58;;;;;;;;;;5027963;28;20056;-72
2023/05/30 02:00:14;;;;;;;13.57;2.33;;;;;;;;;;5026509;28;20026;-72
2023/05/30 02:02:41;;;;;;;11.88;2.53;;;;;;;;;;5026459;28;20340;-71
2023/05/30 02:05:07;;;;;;;16.20;3.75;;;;;;;;;;5022159;28;20553;-71
2023/05/30 02:07:33;;;;;;;12.07;2.88;;;;;;;;;;5024355;28;20037;-72
2023/05/30 02:09:59;;;;;;;11.50;2.33;;;;;;;;;;5027974;28;20160;-71
2023/05/30 02:12:25;;;;;;;12.15;3.22;;;;;;;;;;5029435;28;20121;-71
2023/05/30 02:14:54;;;;;;;11.93;2.90;;;;;;;;;;5026580;28;20493;-72
2023/05/30 02:17:21;;;;;;;14.07;3.28;;;;;;;;;;5028543;28;20568;-72
2023/05/30 02:19:47;;;;;;;15.65;3.28;;;;;;;;;;5023247;28;20266;-72
2023/05/30 02:22:13;;;;;;;15.88;3.00;;;;;;;;;;5038098;28;20037;-72
2023/05/30 02:24:40;;;;;;;14.27;2.83;;;;;;;;;;5027425;28;20037;-71
2023/05/30 02:27:06;;;;;;;14.43;3.38;;;;;;;;;;5028848;28;20056;-72
2023/05/30 02:29:32;;;;;;;8.45;3.53;;;;;;;;;;5043929;28;20037;-72
2023/05/30 02:31:59;;;;;;;6.95;2.33;;;;;;;;;;5028674;28;20402;-71
2023/05/30 02:34:25;;;;;;;14.75;4.05;;;;;;;;;;5031240;28;20037;-72
2023/05/30 02:36:51;;;;;;;16.75;2.95;;;;;;;;;;5029074;28;20037;-71
2023/05/30 02:39:17;;;;;;;13.27;3.15;;;;;;;;;;5027361;28;20490;-72
2023/05/30 02:41:43;;;;;;;14.70;2.70;;;;;;;;;;5041775;28;20037;-71
2023/05/30 02:44:09;;;;;;;17.42;3.60;;;;;;;;;;5041397;28;20039;-72
2023/05/30 02:46:35;;;;;;;11.40;2.85;;;;;;;;;;5029228;28;20044;-71
2023/05/30 02:49:01;;;;;;;20.27;3.80;;;;;;;;;;5031109;28;20081;-71
2023/05/30 02:51:27;;;;;;;11.73;2.60;;;;;;;;;;5033587;28;20036;-71
2023/05/30 02:53:53;;;;;;;14.30;3.30;;;;;;;;;;5033368;28;20029;-71
2023/05/30 02:56:22;;;;;;;12.20;3.63;;;;;;;;;;5030288;28;20040;-71
2023/05/30 02:58:49;;;;;;;17.15;3.55;;;;;;;;;;5030699;28;20111;-71
2023/05/30 03:01:15;;;;;;;13.27;3.08;;;;;;;;;;5031609;28;20060;-71
2023/05/30 03:03:41;;;;;;;16.10;3.60;;;;;;;;;;5032193;28;20103;-70
2023/05/30 03:06:08;;;;;;;11.63;3.13;;;;;;;;;;5033461;28;20021;-71
2023/05/30 03:08:36;;;;;;;15.07;3.88;;;;;;;;;;5031416;28;20103;-72
2023/05/30 03:11:02;;;;;;;12.80;3.28;;;;;;;;;;5033372;28;20025;-72
2023/05/30 03:13:28;;;;;;;18.90;3.53;;;;;;;;;;5030294;28;20096;-71
2023/05/30 03:15:54;;;;;;;12.52;3.70;;;;;;;;;;5031311;28;20060;-71
2023/05/30 03:18:20;;;;;;;18.77;2.90;;;;;;;;;;5020511;28;20061;-71
2023/05/30 03:20:47;;;;;;;11.30;2.97;;;;;;;;;;5025489;28;20025;-71
2023/05/30 03:23:13;;;;;;;11.18;3.40;;;;;;;;;;5029814;28;20042;-71
2023/05/30 03:25:39;;;;;;;14.38;3.38;;;;;;;;;;5029295;28;20140;-71
2023/05/30 03:28:08;;;;;;;13.93;2.70;;;;;;;;;;5030845;28;20163;-71
2023/05/30 03:30:34;;;;;;;23.08;5.50;;;;;;;;;;5032232;28;20056;-70
2023/05/30 03:33:00;;;;;;;19.90;3.42;;;;;;;;;;5030429;28;20040;-71
2023/05/30 03:35:26;;;;;;;14.93;3.10;;;;;;;;;;5023257;28;20025;-71
2023/05/30 03:37:52;;;;;;;15.00;3.83;;;;;;;;;;5030945;28;20045;-71
2023/05/30 03:40:19;;;;;;;16.25;4.78;;;;;;;;;;5028283;28;20391;-71
2023/05/30 03:42:45;;;;;;;17.58;3.78;;;;;;;;;;5025308;28;20034;-71
2023/05/30 03:45:11;;;;;;;19.95;3.10;;;;;;;;;;5031853;28;20103;-71
2023/05/30 03:47:37;;;;;;;15.07;3.13;;;;;;;;;;5030662;28;20045;-71
2023/05/30 03:50:03;;;;;;;19.85;5.13;;;;;;;;;;5031260;28;20136;-71
2023/05/30 03:52:29;;;;;;;12.57;3.42;;;;;;;;;;5030214;28;20048;-71
2023/05/30 03:54:56;;;;;;;16.33;3.30;;;;;;;;;;5029388;28;20040;-71
2023/05/30 03:57:22;;;;;;;12.93;3.17;;;;;;;;;;5036512;28;20041;-71
2023/05/30 03:59:48;;;;;;;14.38;3.33;;;;;;;;;;5027059;28;20487;-71
2023/05/30 04:02:14;;;;;;;19.38;3.97;;;;;;;;;;5031893;28;20037;-71
2023/05/30 04:04:40;;;;;;;17.58;3.28;;;;;;;;;;5031318;28;20034;-71
2023/05/30 04:07:07;;;;;;;15.43;3.03;;;;;;;;;;5032162;28;20041;-71
2023/05/30 04:09:33;;;;;;;16.55;3.67;;;;;;;;;;5028446;28;20046;-71
2023/05/30 04:11:59;;;;;;;19.85;3.50;;;;;;;;;;5031682;28;20120;-71
2023/05/30 04:14:25;;;;;;;18.67;4.28;;;;;;;;;;5029812;28;20045;-71
2023/05/30 04:16:51;;;;;;;22.50;3.45;;;;;;;;;;5030486;28;20044;-71
2023/05/30 04:19:17;;;;;;;17.08;3.50;;;;;;;;;;5030040;28;20041;-71
2023/05/30 04:21:43;;;;;;;20.23;3.50;;;;;;;;;;5031691;28;20391;-71
2023/05/30 04:24:09;;;;;;;14.80;4.10;;;;;;;;;;5028345;28;20155;-72
2023/05/30 04:26:36;;;;;;;18.50;3.10;;;;;;;;;;5029276;28;20033;-71
2023/05/30 04:29:02;;;;;;;18.15;3.90;;;;;;;;;;5027507;28;20021;-71
2023/05/30 04:31:28;;;;;;;22.35;3.47;;;;;;;;;;5020699;28;20120;-71
2023/05/30 04:33:55;;;;;;;13.65;2.97;;;;;;;;;;5029466;28;20038;-70
2023/05/30 04:36:21;;;;;;;22.02;5.05;;;;;;;;;;5016445;28;20111;-73
2023/05/30 04:38:48;;;;;;;18.02;4.35;;;;;;;;;;5019592;28;20046;-73
2023/05/30 04:41:18;;;;;;;12.57;3.25;;;;;;;;;;5027187;28;20327;-71
2023/05/30 04:43:48;;;;;;;17.95;7.97;;;;;;;;;;5027210;28;20086;-71
2023/05/30 04:46:21;;;;;;;22.98;5.95;;;;;;;;;;5030666;28;20022;-71
2023/05/30 04:48:48;;;;;;;21.08;6.68;;;;;;;;;;5027725;28;20051;-71
2023/05/30 04:51:14;;;;;;;16.95;3.35;;;;;;;;;;5029556;28;20113;-71
2023/05/30 04:53:40;;;;;;;15.32;2.72;;;;;;;;;;5029218;28;20530;-72
2023/05/30 04:56:06;;;;;;;13.88;3.42;;;;;;;;;;5023271;28;20034;-72
2023/05/30 04:58:32;;;;;;;12.45;2.90;;;;;;;;;;5027878;28;20126;-71
2023/05/30 05:00:58;;;;;;;20.50;3.70;;;;;;;;;;5029150;28;20180;-72
2023/05/30 05:03:24;;;;;;;14.52;4.10;;;;;;;;;;5031310;28;20078;-72
2023/05/30 05:05:50;;;;;;;14.65;3.22;;;;;;;;;;5028169;28;20119;-72
2023/05/30 05:08:16;;;;;;;14.15;3.45;;;;;;;;;;5028794;28;20076;-73
2023/05/30 05:10:42;;;;;;;13.18;2.97;;;;;;;;;;5024383;28;20114;-72
2023/05/30 05:13:08;;;;;;;10.38;2.67;;;;;;;;;;5019810;28;20049;-73
2023/05/30 05:15:35;;;;;;;18.10;5.72;;;;;;;;;;5024138;28;20033;-72
2023/05/30 05:18:01;;;;;;;19.35;5.25;;;;;;;;;;5028686;28;20390;-72
2023/05/30 05:20:27;;;;;;;13.15;3.42;;;;;;;;;;5026318;28;20115;-72
2023/05/30 05:22:55;;;;;;;11.60;3.00;;;;;;;;;;5023718;28;20490;-72
2023/05/30 05:25:21;;;;;;;12.23;3.00;;;;;;;;;;5020292;28;20103;-72
2023/05/30 05:27:47;;;;;;;17.17;3.40;;;;;;;;;;5026524;28;20048;-72
2023/05/30 05:30:13;;;;;;;17.27;3.65;;;;;;;;;;5028654;28;20034;-72
2023/05/30 05:32:40;;;;;;;14.73;3.08;;;;;;;;;;5025787;28;20030;-72
2023/05/30 05:35:09;;;;;;;14.18;2.67;;;;;;;;;;5020067;28;20026;-72
2023/05/30 05:37:35;;;;;;;16.02;2.88;;;;;;;;;;5022783;28;20083;-71
2023/05/30 05:40:05;;;;;;;12.63;2.58;;;;;;;;;;5028722;28;20025;-72
2023/05/30 05:42:31;;;;;;;8.15;2.58;;;;;;;;;;5024364;28;20033;-71
2023/05/30 05:44:57;;;;;;;13.60;2.63;;;;;;;;;;5028644;28;20375;-72
2023/05/30 05:47:24;;;;;;;13.02;3.28;;;;;;;;;;5025502;28;20081;-72
2023/05/30 05:49:51;;;;;;;16.50;2.97;;;;;;;;;;5023373;28;20036;-72
2023/05/30 05:52:17;;;;;;;5.28;2.65;;;;;;;;;;5030050;28;20029;-73
2023/05/30 05:54:43;;;;;;;8.68;2.38;;;;;;;;;;5029283;28;20144;-71
2023/05/30 05:57:09;;;;;;;13.15;5.03;;;;;;;;;;5028573;28;20034;-71
2023/05/30 05:59:35;;;;;;;9.90;3.42;;;;;;;;;;5027036;28;20056;-70
2023/05/30 06:02:01;;;;;;;14.55;2.88;;;;;;;;;;5026286;28;20463;-73
2023/05/30 06:04:27;;;;;;;9.32;2.67;;;;;;;;;;5032966;28;20038;-74
2023/05/30 06:06:53;;;;;;;11.52;2.20;;;;;;;;;;5031409;28;20386;-74
2023/05/30 06:09:19;;;;;;;9.13;2.67;;;;;;;;;;5034145;28;20041;-74
2023/05/30 06:11:45;;;;;;;9.02;2.53;;;;;;;;;;5031878;28;20025;-72
2023/05/30 06:14:12;;;;;;;8.73;2.60;;;;;;;;;;5032133;28;20034;-72
2023/05/30 06:16:38;;;;;;;12.98;3.03;;;;;;;;;;5029230;28;20044;-72
2023/05/30 06:19:04;;;;;;;10.43;2.45;;;;;;;;;;5012186;28;20057;-72
2023/05/30 06:21:30;;;;;;;10.63;2.28;;;;;;;;;;5027785;28;20097;-71
2023/05/30 06:23:56;;;;;;;22.33;8.35;;;;;;;;;;5028392;28;20043;-72
2023/05/30 06:26:22;;;;;;;13.98;3.33;;;;;;;;;;5025990;28;20092;-72
2023/05/30 06:28:52;;;;;;;10.55;2.13;;;;;;;;;;5039179;28;20438;-71
2023/05/30 06:31:18;;;;;;;11.38;2.58;;;;;;;;;;5041686;28;20041;-72
2023/05/30 06:33:44;;;;;;;6.22;2.15;;;;;;;;;;5022641;28;20041;-72
2023/05/30 06:36:10;;;;;;;7.57;2.03;;;;;;;;;;5032402;28;20025;-72
2023/05/30 06:38:36;;;;;;;16.20;2.42;;;;;;;;;;5032905;28;20121;-72
2023/05/30 06:41:02;;;;;;;14.55;3.28;;;;;;;;;;5031709;28;20112;-72
2023/05/30 06:43:28;;;;;;;10.23;2.55;;;;;;;;;;5033716;28;20495;-72
2023/05/30 06:45:54;;;;;;;7.75;1.85;;;;;;;;;;5031403;28;20037;-72
2023/05/30 06:48:20;;;;;;;7.00;1.67;;;;;;;;;;5030336;28;20050;-72
2023/05/30 06:50:46;;;;;;;8.93;2.80;;;;;;;;;;5026736;28;20021;-72
2023/05/30 06:53:12;;;;;;;8.25;1.52;;;;;;;;;;5026849;28;20037;-72
2023/05/30 06:55:38;;;;;;;8.73;1.92;;;;;;;;;;5027672;28;20029;-71
2023/05/30 06:58:07;;;;;;;11.43;1.80;;;;;;;;;;5041286;28;20128;-72
2023/05/30 07:00:33;;;;;;;8.07;1.65;;;;;;;;;;5025589;28;20041;-72
2023/05/30 07:03:03;;;;;;;6.60;2.45;;;;;;;;;;5022241;28;20038;-72
2023/05/30 07:05:29;;;;;;;5.40;1.85;;;;;;;;;;5019982;28;20103;-72
2023/05/30 07:07:55;;;;;;;5.63;2.75;;;;;;;;;;5027639;28;20033;-72
2023/05/30 07:10:21;;;;;;;7.28;2.13;;;;;;;;;;5028420;28;20037;-72
2023/05/30 07:12:47;;;;;;;4.10;1.42;;;;;;;;;;5026019;28;20041;-72
2023/05/30 07:15:14;;;;;;;5.88;1.25;;;;;;;;;;5022930;28;20038;-72
2023/05/30 07:17:40;;;;;;;4.63;1.67;;;;;;;;;;5026076;28;20479;-71
2023/05/30 07:20:06;;;;;;;6.82;1.50;;;;;;;;;;5022877;28;20113;-72
2023/05/30 07:22:32;;;;;;;9.38;2.33;;;;;;;;;;5024465;28;20025;-72
2023/05/30 07:24:58;;;;;;;8.32;1.95;;;;;;;;;;5027885;28;20041;-72
2023/05/30 07:27:25;;;;;;;5.28;1.73;;;;;;;;;;5023133;28;20479;-72
2023/05/30 07:29:51;;;;;;;4.65;1.77;;;;;;;;;;5026610;28;20040;-72
2023/05/30 07:32:17;;;;;;;7.18;2.42;;;;;;;;;;5025572;28;20029;-72
2023/05/30 07:34:43;;;;;;;3.78;1.20;;;;;;;;;;5027742;28;20033;-72
2023/05/30 07:37:09;;;;;;;4.57;1.60;;;;;;;;;;5025411;28;20388;-72
2023/05/30 07:39:35;;;;;;;6.90;2.20;;;;;;;;;;5027122;28;20048;-71
2023/05/30 07:42:02;;;;;;;7.07;2.30;;;;;;;;;;5029722;28;20029;-71
2023/05/30 07:44:28;;;;;;;5.60;1.80;;;;;;;;;;5025207;28;20032;-72
2023/05/30 07:46:54;;;;;;;8.32;3.22;;;;;;;;;;5025742;28;21541;-71
2023/05/30 07:49:20;;;;;;;6.82;1.90;;;;;;;;;;5028397;28;20508;-72
2023/05/30 07:51:46;;;;;;;6.68;1.90;;;;;;;;;;5026689;28;20446;-72
2023/05/30 07:54:12;;;;;;;7.55;2.30;;;;;;;;;;5025220;28;20036;-72
2023/05/30 07:56:38;;;;;;;7.20;1.92;;;;;;;;;;5023341;28;20045;-72
2023/05/30 07:59:04;;;;;;;8.52;1.90;;;;;;;;;;5024487;28;20105;-72
2023/05/30 08:01:32;;;;;;;4.13;1.58;;;;;;;;;;5020692;28;20045;-72
2023/05/30 08:03:58;;;;;;;6.65;1.90;;;;;;;;;;5023600;28;20063;-72
2023/05/30 08:06:25;;;;;;;6.50;1.83;;;;;;;;;;5026029;28;20042;-72
2023/05/30 08:08:51;;;;;;;8.10;2.03;;;;;;;;;;5026028;28;20038;-72
2023/05/30 08:11:18;;;;;;;5.13;1.73;;;;;;;;;;5024030;28;20026;-72
2023/05/30 08:13:44;;;;;;;5.53;1.70;;;;;;;;;;5023579;28;20026;-72
2023/05/30 08:16:11;;;;;;;4.07;1.13;;;;;;;;;;5024945;28;20058;-72
2023/05/30 08:18:37;;;;;;;7.63;1.73;;;;;;;;;;5025865;28;20057;-72
2023/05/30 08:21:03;;;;;;;7.10;2.00;;;;;;;;;;5020494;28;20113;-72
2023/05/30 08:23:29;;;;;;;7.85;2.13;;;;;;;;;;5041001;28;20029;-72
2023/05/30 08:25:58;;;;;;;2.92;1.55;;;;;;;;;;5021268;28;20022;-72
2023/05/30 08:28:24;;;;;;;7.57;1.67;;;;;;;;;;5024577;28;20049;-72
2023/05/30 08:30:51;;;;;;;9.35;2.22;;;;;;;;;;5021724;28;20029;-72
2023/05/30 08:33:17;;;;;;;4.65;1.50;;;;;;;;;;5024756;28;20029;-72
2023/05/30 08:35:43;;;;;;;4.15;1.20;;;;;;;;;;5022271;28;20039;-72
2023/05/30 08:38:10;;;;;;;4.43;1.33;;;;;;;;;;5024868;28;20041;-71
2023/05/30 08:40:40;;;;;;;3.20;1.33;;;;;;;;;;5020893;28;20029;-72
2023/05/30 08:43:06;;;;;;;14.35;7.47;;;;;;;;;;5024673;28;20136;-71
2023/05/30 08:45:32;;;;;;;6.22;1.80;;;;;;;;;;5024249;28;20541;-70
2023/05/30 08:47:59;;;;;;;5.45;1.52;;;;;;;;;;5023858;28;20072;-72
2023/05/30 08:50:25;;;;;;;3.45;1.35;;;;;;;;;;5022640;28;20489;-71
2023/05/30 08:52:52;;;;;;;6.70;1.40;;;;;;;;;;5024875;28;20029;-71
2023/05/30 08:55:22;;;;;;;4.10;1.67;;;;;;;;;;5022294;28;20057;-72
2023/05/30 08:57:55;;;;;;;4.15;1.63;;;;;;;;;;5039592;28;20033;-71
2023/05/30 09:00:21;;;;;;;2.50;1.70;;;;;;;;;;5020394;28;20411;-72
2023/05/30 09:02:51;;;;;;;7.68;4.97;;;;;;;;;;5022105;28;20391;-70
2023/05/30 09:05:17;;;;;;;6.40;2.60;;;;;;;;;;5022741;28;20033;-71
2023/05/30 09:07:45;;;;;;;2.03;0.90;;;;;;;;;;5019854;28;20040;-71
2023/05/30 09:10:12;;;;;;;0.90;0.70;;;;;;;;;;5021495;28;20113;-72
2023/05/30 09:12:38;;;;;;;1.48;0.80;;;;;;;;;;5022195;28;20032;-71
2023/05/30 09:15:04;;;;;;;2.78;0.60;;;;;;;;;;5024663;28;20037;-72
2023/05/30 09:17:32;;;;;;;2.13;0.85;;;;;;;;;;5024930;28;20048;-71
2023/05/30 09:19:58;;;;;;;2.78;0.80;;;;;;;;;;5024087;28;20483;-72
2023/05/30 09:22:26;;;;;;;3.60;0.70;;;;;;;;;;5023927;28;20097;-72
2023/05/30 09:24:57;;;;;;;2.35;1.27;;;;;;;;;;5021928;28;20034;-73
2023/05/30 09:27:24;;;;;;;1.13;0.60;;;;;;;;;;5024229;28;20133;-73
2023/05/30 09:29:50;;;;;;;0.80;0.73;;;;;;;;;;5015379;28;20471;-74
2023/05/30 09:32:16;;;;;;;2.28;1.23;;;;;;;;;;5020187;28;20567;-72
2023/05/30 09:34:52;;;;;;;14.18;7.35;;;;;;;;;;5015530;28;20075;-70
2023/05/30 09:37:18;;;;;;;1.88;0.60;;;;;;;;;;5026339;28;20065;-71
2023/05/30 09:40:03;;;;;;;1.48;0.60;;;;;;;;;;5026909;28;20084;-72
2023/05/30 09:42:43;;;;;;;5.78;0.55;;;;;;;;;;5029904;28;20621;-72
2023/05/30 09:45:10;;;;;;;2.95;0.65;;;;;;;;;;5030711;28;20041;-72
2023/05/30 09:47:46;;;;;;;2.22;0.43;;;;;;;;;;5030082;28;20053;-72
2023/05/30 09:50:15;;;;;;;1.90;0.50;;;;;;;;;;5026583;28;20252;-72
2023/05/30 09:52:41;;;;;;;1.38;0.43;;;;;;;;;;5031532;28;20091;-73
2023/05/30 09:55:08;;;;;;;3.97;1.05;;;;;;;;;;5032749;28;20030;-73
2023/05/30 09:57:35;;;;;;;2.28;0.50;;;;;;;;;;5030708;28;20056;-72
2023/05/30 10:00:25;;;;;;;0.40;0.40;;;;;;;;;;5029840;28;20026;-72
2023/05/30 10:02:55;;;;;;;1.83;0.60;;;;;;;;;;5019937;28;20111;-72
2023/05/30 10:05:25;;;;;;;1.02;0.60;;;;;;;;;;5021985;28;20037;-72
2023/05/30 10:07:52;;;;;;;2.75;0.80;;;;;;;;;;5017309;28;20037;-72
2023/05/30 10:10:19;;;;;;;53.65;36.72;;;;;;;;;;5025663;28;20040;-70
2023/05/30 10:12:48;;;;;;;3.78;2.35;;;;;;;;;;5026086;28;20387;-71
2023/05/30 10:15:14;;;;;;;1.67;1.30;;;;;;;;;;5022639;28;20360;-72
2023/05/30 10:17:54;;;;;;;3.40;0.85;;;;;;;;;;5025636;28;20034;-71
2023/05/30 10:20:22;;;;;;;0.50;0.50;;;;;;;;;;5021797;28;20034;-72
2023/05/30 10:22:52;;;;;;;1.67;0.65;;;;;;;;;;5023849;28;20095;-72
2023/05/30 10:25:18;;;;;;;1.52;0.63;;;;;;;;;;5027877;28;20052;-73
2023/05/30 10:27:54;;;;;;;0.95;0.50;;;;;;;;;;5027738;28;20041;-72
2023/05/30 10:30:28;;;;;;;2.47;0.70;;;;;;;;;;5027398;28;20033;-72
2023/05/30 10:33:14;;;;;;;1.95;0.70;;;;;;;;;;5023894;28;20087;-72
2023/05/30 10:35:40;;;;;;;1.85;0.85;;;;;;;;;;5025407;28;20018;-71
2023/05/30 10:38:07;;;;;;;5.55;0.73;;;;;;;;;;5028061;28;20042;-72
2023/05/30 10:40:54;;;;;;;2.20;1.73;;;13.20;99.90;;;;;;5024131;28;20447;-71
2023/05/30 10:43:20;;;;;;;10.10;5.43;;;;;;;;;;5029712;28;20033;-70
2023/05/30 10:45:49;;;;;;;1.73;1.20;;;;;;;;;;5013978;28;20083;-71
2023/05/30 10:48:44;;;;;;;2.92;0.93;;;;;;;;;;5027877;28;20049;-73
2023/05/30 10:51:11;;;;;;;3.25;0.95;;;;;;;;;;5025106;28;20111;-73
2023/05/30 10:53:59;;;;;;;2.63;0.95;;;;;;;;;;5032937;28;20025;-73
2023/05/30 10:56:35;;;;;;;5.05;0.98;;;;;;;;;;5031618;28;20121;-72
2023/05/30 10:59:02;;;;;;;1.27;1.17;;;;;;;;;;5031553;28;20033;-71
2023/05/30 11:01:28;;;;;;;2.42;1.10;;;;;;;;;;5027165;28;20037;-72
2023/05/30 11:03:57;;;;;;;3.42;1.00;;;;;;;;;;5024950;28;20033;-71
2023/05/30 11:06:24;;;;;;;3.38;1.38;;;;;;;;;;5030757;28;20029;-70
2023/05/30 11:08:54;;;;;;;4.03;1.10;;;;;;;;;;5029209;28;20406;-72
2023/05/30 11:11:21;;;;;;;3.58;1.33;;;;;;;;;;5029787;28;20057;-70
2023/05/30 11:13:48;;;;;;;2.20;1.00;;;;;;;;;;5028841;28;20101;-72
2023/05/30 11:16:21;;;;;;;2.95;1.20;;;;;;;;;;5028222;28;20040;-71
2023/05/30 11:18:51;;;;;;;2.47;0.90;;;;;;;;;;5037856;28;20048;-73
2023/05/30 11:21:36;;;;;;;7.55;1.67;;;;;;;;;;5026374;28;20033;-72
2023/05/30 11:24:04;;;;;;;1.50;0.90;;;;;;;;;;5030480;28;20482;-73
2023/05/30 11:26:59;;;;;;;4.22;0.80;;;;;;;;;;5028475;28;20120;-72
2023/05/30 11:29:33;;;;;;;1.55;0.80;;;;;;;;;;5019486;28;20054;-72
2023/05/30 11:31:59;;;;;;;1.58;0.82;;;;;;;;;;5027147;28;20029;-72
2023/05/30 11:34:25;;;;;;;3.75;1.77;;;;;;;;;;5022932;28;20510;-72
2023/05/30 11:36:52;;;;;;;1.35;0.80;;;;;;;;;;5033486;28;20128;-72
2023/05/30 11:39:22;;;;;;;1.27;0.77;;;;;;;;;;5027736;28;20076;-72
2023/05/30 11:41:48;;;;;;;1.77;0.70;;;;;;;;;;5033028;28;20379;-72
2023/05/30 11:44:15;;;;;;;4.30;0.70;;;;;;;;;;5028515;28;20033;-72
2023/05/30 11:46:41;;;;;;;0.63;0.50;;;;;;;;;;5032746;28;20498;-72
2023/05/30 11:49:07;;;;;;;3.30;0.88;;;;;;;;;;5032051;28;20399;-72
2023/05/30 11:51:34;;;;;;;1.95;1.40;;;;;;;;;;5030954;28;20095;-73
2023/05/30 11:54:01;;;;;;;2.17;1.50;;;;;;;;;;5028541;28;20038;-72
2023/05/30 11:56:30;;;;;;;1.58;0.75;;;;;;;;;;5030016;28;20034;-72
2023/05/30 11:58:57;;;;;;;2.95;0.70;;;;;;;;;;5030724;28;20490;-72
2023/05/30 12:01:26;;;;;;;2.50;0.60;;;;;;;;;;5032225;28;20042;-72
2023/05/30 12:03:54;;;;;;;2.60;0.75;;;;;;;;;;5032186;28;20105;-73
2023/05/30 12:06:20;;;;;;;1.55;0.63;;;;;;;;;;5030344;28;20391;-72
2023/05/30 12:08:47;;;;;;;1.27;0.80;;;;;;;;;;5032379;28;20037;-72
2023/05/30 12:11:13;;;;;;;1.25;0.60;;;;;;;;;;5031944;28;20044;-72
2023/05/30 12:13:40;;;;;;;1.38;0.90;;;;;;;;;;5019464;28;20092;-72
2023/05/30 12:16:06;;;;;;;1.00;0.70;;;;;;;;;;5029722;28;20029;-72
2023/05/30 12:18:33;;;;;;;1.60;1.02;;;;;;;;;;5032358;28;20036;-72
2023/05/30 12:21:02;;;;;;;1.50;0.70;;;;;;;;;;5031783;28;20125;-72
2023/05/30 12:23:29;;;;;;;1.33;0.82;;;;;;;;;;5032298;28;20028;-72
2023/05/30 12:25:56;;;;;;;2.05;0.77;;;;;;;;;;5031858;28;20029;-72
2023/05/30 12:28:22;;;;;;;2.38;0.93;;;;;;;;;;5033394;28;20037;-72
2023/05/30 12:30:50;;;;;;;1.50;0.93;;;;;;;;;;5030606;28;20111;-72
2023/05/30 12:33:17;;;;;;;1.45;0.90;;;;;;;;;;5030501;28;20064;-72
2023/05/30 12:35:44;;;;;;;1.58;0.95;;;;;;;;;;5030925;28;20513;-72
2023/05/30 12:38:12;;;;;;;2.63;1.45;;;;;;;;;;5033448;28;20042;-72
2023/05/30 12:40:43;;;;;;;0.90;0.70;;;;;;;;;;5032030;28;20031;-72
2023/05/30 12:43:09;;;;;;;1.80;0.80;;;;;;;;;;5031432;28;20534;-72
2023/05/30 12:45:35;;;;;;;4.15;0.95;;;;;;;;;;5030692;28;20034;-71
2023/05/30 12:48:01;;;;;;;3.17;1.27;;;;;;;;;;5031778;28;20076;-72
2023/05/30 12:50:27;;;;;;;1.85;1.23;;;;;;;;;;5029780;28;20029;-72
2023/05/30 12:52:53;;;;;;;1.92;0.95;;;;;;;;;;5030567;28;20025;-72
2023/05/30 12:55:19;;;;;;;3.88;1.20;;;;;;;;;;5031186;28;20053;-72
2023/05/30 12:57:45;;;;;;;3.80;1.00;;;;;;;;;;5030908;28;20025;-71
2023/05/30 13:00:11;;;;;;;2.15;1.00;;;;;;;;;;5030136;28;20124;-71
2023/05/30 13:02:38;;;;;;;6.47;1.90;;;;;;;;;;5031610;28;20026;-72
2023/05/30 13:05:04;;;;;;;2.33;0.90;;;;;;;;;;5030028;28;20132;-72
2023/05/30 13:07:30;;;;;;;1.38;0.77;;;;;;;;;;5031129;28;20038;-72
2023/05/30 13:09:56;;;;;;;0.85;0.73;;;;;;;;;;5023602;28;20102;-72
2023/05/30 13:12:22;;;;;;;2.70;0.98;;;;;;;;;;5028617;28;20029;-72
2023/05/30 13:14:48;;;;;;;2.53;0.80;;;;;;;;;;5026491;28;20493;-71
2023/05/30 13:17:14;;;;;;;3.55;0.77;;;;;;;;;;5031270;28;20046;-72
2023/05/30 13:19:40;;;;;;;0.70;0.70;;;;;;;;;;5030507;28;20060;-72
2023/05/30 13:22:07;;;;;;;1.77;0.77;;;;;;;;;;5029844;28;20033;-72
2023/05/30 13:24:33;;;;;;;2.40;0.88;;;;;;;;;;5030261;28;20042;-72
2023/05/30 13:27:00;;;;;;;1.85;0.80;;;;;;;;;;5031006;28;20029;-72
2023/05/30 13:29:26;;;;;;;2.83;0.80;;;;;;;;;;5030657;28;20088;-72
2023/05/30 13:31:52;;;;;;;5.30;1.30;;;;;;;;;;5025284;28;20479;-71
2023/05/30 13:34:18;;;;;;;2.15;1.15;;;;;;;;;;5027559;28;20585;-72
2023/05/30 13:36:45;;;;;;;2.97;1.27;;;;;;;;;;5028881;28;20025;-72
2023/05/30 13:39:11;;;;;;;2.05;1.10;;;;;;;;;;5030646;28;20033;-72
2023/05/30 13:41:37;;;;;;;2.28;1.17;;;;;;;;;;5030022;28;20037;-72
2023/05/30 13:44:03;;;;;;;4.45;1.63;;;;;;;;;;5036599;28;20029;-72
2023/05/30 13:46:29;;;;;;;1.85;1.30;;;;;;;;;;5030715;28;20030;-72
2023/05/30 13:48:56;;;;;;;3.28;1.45;;;;;;;;;;5029325;28;20114;-71
2023/05/30 13:51:22;;;;;;;2.22;1.52;;;;;;;;;;5029229;28;20108;-72
2023/05/30 13:53:48;;;;;;;2.55;1.42;;;;;;;;;;5030635;28;20407;-72
2023/05/30 13:56:15;;;;;;;2.38;0.90;;;;;;;;;;5030022;28;20030;-72
2023/05/30 13:58:41;;;;;;;1.40;1.00;;;;;;;;;;5028060;28;20139;-72
2023/05/30 14:01:07;;;;;;;1.52;0.80;;;;;;;;;;5029334;28;20083;-72
2023/05/30 14:03:33;;;;;;;1.33;1.23;;;;;;;;;;5030311;28;20058;-72
2023/05/30 14:06:00;;;;;;;1.73;1.00;;;;;;;;;;5028463;28;20036;-72
2023/05/30 14:08:27;;;;;;;1.83;1.15;;;;;;;;;;5030629;28;20021;-72
2023/05/30 14:10:53;;;;;;;1.80;1.10;;;;;;;;;;5030096;28;20038;-72
2023/05/30 14:13:19;;;;;;;0.80;0.70;;;;;;;;;;5029067;28;20026;-72
2023/05/30 14:15:45;;;;;;;1.60;0.75;;;;;;;;;;5030246;28;20026;-72
2023/05/30 14:18:12;;;;;;;1.88;1.00;;;;;;;;;;5029654;28;20039;-72
2023/05/30 14:20:38;;;;;;;3.00;1.10;;;;;;;;;;5028418;28;20039;-72
2023/05/30 14:23:04;;;;;;;2.88;0.98;;;;;;;;;;5029880;28;20041;-72
2023/05/30 14:25:30;;;;;;;1.67;0.85;;;;;;;;;;5034542;28;20398;-72
2023/05/30 14:27:56;;;;;;;1.00;0.90;;;;;;;;;;5031697;28;20029;-72
2023/05/30 14:30:22;;;;;;;2.75;1.00;;;;;;;;;;5033456;28;20040;-71
2023/05/30 14:32:48;;;;;;;1.60;1.20;;;;;;;;;;5032535;28;20120;-72
2023/05/30 14:35:15;;;;;;;1.90;1.17;;;;;;;;;;5030137;28;20151;-72
2023/05/30 14:37:41;;;;;;;1.52;1.08;;;;;;;;;;5033067;28;20030;-72